createdAt,value
2022-09-02T00:01:27.257Z,10.37
2022-09-02T00:04:02.835Z,10.24
2022-09-02T00:06:31.104Z,10.18
2022-09-02T00:08:59.184Z,10.21
2022-09-02T00:11:29.234Z,10.20
2022-09-02T00:13:56.574Z,10.16
2022-09-02T00:16:24.322Z,10.04
2022-09-02T00:18:52.028Z,10.18
2022-09-02T00:21:20.152Z,10.13
2022-09-02T00:23:47.303Z,10.05
2022-09-02T00:26:14.502Z,9.40
2022-09-02T00:28:46.278Z,9.81
2022-09-02T00:31:19.229Z,10.00
2022-09-02T00:33:46.078Z,9.70
2022-09-02T00:36:13.401Z,9.88
2022-09-02T00:38:40.034Z,9.46
2022-09-02T00:41:10.262Z,10.00
2022-09-02T00:43:50.674Z,9.94
2022-09-02T00:46:20.032Z,9.79
2022-09-02T00:48:53.667Z,9.66
2022-09-02T00:51:21.580Z,9.93
2022-09-02T00:53:49.828Z,9.39
2022-09-02T00:56:24.008Z,9.61
2022-09-02T00:58:52.155Z,9.73
2022-09-02T01:01:19.749Z,9.84
2022-09-02T01:03:46.682Z,9.56
2022-09-02T01:06:13.680Z,9.51
2022-09-02T01:08:43.374Z,9.83
2022-09-02T01:11:11.609Z,10.01
2022-09-02T01:13:41.935Z,9.71
2022-09-02T01:16:16.677Z,9.58
2022-09-02T01:18:50.193Z,9.94
2022-09-02T01:21:17.133Z,9.98
2022-09-02T01:23:43.812Z,9.47
2022-09-02T01:26:10.618Z,9.76
2022-09-02T01:28:38.980Z,9.97
2022-09-02T01:31:06.049Z,9.76
2022-09-02T01:33:33.854Z,9.82
2022-09-02T01:36:05.143Z,9.48
2022-09-02T01:38:32.694Z,9.66
2022-09-02T01:40:59.598Z,9.66
2022-09-02T01:43:28.236Z,9.56
2022-09-02T01:45:57.667Z,9.79
2022-09-02T01:48:27.294Z,9.97
2022-09-02T01:51:01.348Z,9.68
2022-09-02T01:53:29.617Z,9.24
2022-09-02T01:55:57.767Z,9.50
2022-09-02T01:58:24.772Z,9.75
2022-09-02T02:00:51.751Z,9.77
2022-09-02T02:03:18.886Z,9.60
2022-09-02T02:05:45.779Z,9.52
2022-09-02T02:08:16.043Z,9.65
2022-09-02T02:10:43.790Z,10.02
2022-09-02T02:13:12.519Z,9.95
2022-09-02T02:15:42.089Z,9.67
2022-09-02T02:18:11.013Z,9.86
2022-09-02T02:20:38.224Z,9.55
2022-09-02T02:23:06.348Z,9.82
2022-09-02T02:25:33.114Z,9.80
2022-09-02T02:27:59.854Z,9.81
2022-09-02T02:30:30.605Z,10.03
2022-09-02T02:32:58.097Z,9.94
2022-09-02T02:35:25.680Z,9.58
2022-09-02T02:37:53.686Z,9.85
2022-09-02T02:40:23.083Z,10.09
2022-09-02T02:42:51.208Z,10.08
2022-09-02T02:45:18.087Z,9.80
2022-09-02T02:47:45.050Z,9.66
2022-09-02T02:50:14.037Z,10.06
2022-09-02T02:52:41.168Z,10.06
2022-09-02T02:55:09.539Z,9.71
2022-09-02T02:57:37.839Z,9.83
2022-09-02T03:00:12.671Z,9.43
2022-09-02T03:02:39.703Z,9.70
2022-09-02T03:05:08.778Z,9.71
2022-09-02T03:07:35.732Z,9.36
2022-09-02T03:10:06.863Z,9.47
2022-09-02T03:12:34.266Z,9.19
2022-09-02T03:15:01.267Z,9.12
2022-09-02T03:17:29.749Z,9.39
2022-09-02T03:19:56.723Z,8.93
2022-09-02T03:22:23.566Z,9.01
2022-09-02T03:24:50.681Z,9.73
2022-09-02T03:27:17.377Z,9.36
2022-09-02T03:29:43.950Z,9.43
2022-09-02T03:32:11.361Z,9.36
2022-09-02T03:34:41.741Z,9.56
2022-09-02T03:37:08.769Z,9.51
2022-09-02T03:39:37.383Z,9.46
2022-09-02T03:42:05.693Z,9.57
2022-09-02T03:44:32.881Z,9.50
2022-09-02T03:47:00.670Z,9.47
2022-09-02T03:49:27.303Z,9.44
2022-09-02T03:51:54.363Z,9.84
2022-09-02T03:54:21.043Z,9.41
2022-09-02T03:56:47.753Z,9.45
2022-09-02T03:59:15.454Z,9.20
2022-09-02T04:01:42.673Z,9.85
2022-09-02T04:04:09.659Z,9.61
2022-09-02T04:06:38.895Z,9.45
2022-09-02T04:09:06.565Z,9.83
2022-09-02T04:11:34.490Z,9.97
2022-09-02T04:14:01.124Z,9.68
2022-09-02T04:16:29.431Z,9.49
2022-09-02T04:19:01.116Z,9.66
2022-09-02T04:21:32.506Z,9.82
2022-09-02T04:23:59.630Z,9.85
2022-09-02T04:26:28.462Z,9.40
2022-09-02T04:28:56.470Z,9.73
2022-09-02T04:31:25.796Z,9.50
2022-09-02T04:33:53.872Z,9.57
2022-09-02T04:36:21.667Z,9.62
2022-09-02T04:38:53.808Z,9.60
2022-09-02T04:41:27.094Z,9.75
2022-09-02T04:43:59.107Z,9.35
2022-09-02T04:46:34.252Z,9.83
2022-09-02T04:49:04.528Z,9.81
2022-09-02T04:51:32.217Z,9.77
2022-09-02T04:54:00.882Z,10.20
2022-09-02T04:56:30.871Z,10.12
2022-09-02T04:58:59.802Z,9.94
2022-09-02T05:01:30.340Z,9.08
2022-09-02T05:03:59.633Z,9.85
2022-09-02T05:06:33.373Z,10.16
2022-09-02T05:09:02.294Z,9.84
2022-09-02T05:11:32.779Z,9.98
2022-09-02T05:14:02.558Z,9.79
2022-09-02T05:16:32.607Z,9.75
2022-09-02T05:19:00.092Z,10.16
2022-09-02T05:21:38.781Z,10.20
2022-09-02T05:24:06.462Z,9.89
2022-09-02T05:26:33.026Z,10.13
2022-09-02T05:29:00.099Z,10.24
2022-09-02T05:31:27.592Z,9.85
2022-09-02T05:33:54.886Z,10.43
2022-09-02T05:36:22.821Z,10.07
2022-09-02T05:38:51.013Z,10.08
2022-09-02T05:41:21.809Z,9.85
2022-09-02T05:43:53.971Z,9.78
2022-09-02T05:46:24.212Z,10.33
2022-09-02T05:48:54.663Z,9.99
2022-09-02T05:51:21.833Z,9.83
2022-09-02T05:53:52.899Z,10.14
2022-09-02T05:56:21.694Z,10.24
2022-09-02T05:58:48.765Z,10.15
2022-09-02T06:01:17.434Z,9.99
2022-09-02T06:03:44.794Z,10.45
2022-09-02T06:06:11.927Z,10.30
2022-09-02T06:08:41.143Z,10.44
2022-09-02T06:11:10.192Z,10.07
2022-09-02T06:13:40.242Z,10.49
2022-09-02T06:16:08.057Z,10.50
2022-09-02T06:18:35.109Z,10.70
2022-09-02T06:21:06.177Z,10.47
2022-09-02T06:23:39.164Z,10.52
2022-09-02T06:26:09.998Z,11.16
2022-09-02T06:28:36.727Z,10.75
2022-09-02T06:31:10.389Z,11.39
2022-09-02T06:33:37.606Z,11.28
2022-09-02T06:36:08.078Z,11.53
2022-09-02T06:38:45.994Z,11.55
2022-09-02T06:41:16.475Z,11.76
2022-09-02T06:43:44.239Z,11.63
2022-09-02T06:46:29.479Z,12.06
2022-09-02T06:48:59.769Z,11.97
2022-09-02T06:51:38.163Z,12.30
2022-09-02T06:54:08.133Z,12.43
2022-09-02T06:56:38.649Z,12.45
2022-09-02T06:59:06.818Z,12.50
2022-09-02T07:01:43.160Z,12.91
2022-09-02T07:04:10.920Z,13.21
2022-09-02T07:06:43.027Z,13.87
2022-09-02T07:09:11.798Z,13.84
2022-09-02T07:11:39.243Z,13.20
2022-09-02T07:14:06.976Z,13.61
2022-09-02T07:16:38.512Z,13.97
2022-09-02T07:19:08.589Z,13.64
2022-09-02T07:21:40.042Z,13.42
2022-09-02T07:24:07.970Z,13.85
2022-09-02T07:26:34.770Z,13.78
2022-09-02T07:29:03.858Z,13.36
2022-09-02T07:31:30.846Z,13.59
2022-09-02T07:33:57.681Z,13.48
2022-09-02T07:36:26.590Z,13.65
2022-09-02T07:38:55.351Z,13.88
2022-09-02T07:41:24.043Z,14.08
2022-09-02T07:43:51.804Z,13.66
2022-09-02T07:46:20.504Z,14.05
2022-09-02T07:48:48.126Z,13.93
2022-09-02T07:51:14.970Z,14.34
2022-09-02T07:53:41.885Z,14.20
2022-09-02T07:56:08.574Z,13.20
2022-09-02T07:58:36.138Z,13.69
2022-09-02T08:01:03.636Z,13.98
2022-09-02T08:03:30.385Z,14.02
2022-09-02T08:05:58.661Z,14.11
2022-09-02T08:08:25.301Z,14.13
2022-09-02T08:10:53.833Z,14.37
2022-09-02T08:13:21.985Z,14.78
2022-09-02T08:15:53.937Z,14.97
2022-09-02T08:18:22.544Z,14.48
2022-09-02T08:20:49.620Z,15.08
2022-09-02T08:23:25.706Z,15.01
2022-09-02T08:26:01.257Z,15.33
2022-09-02T08:28:28.286Z,15.24
2022-09-02T08:30:57.442Z,15.22
2022-09-02T08:33:24.268Z,15.14
2022-09-02T08:35:51.074Z,15.23
2022-09-02T08:38:18.247Z,15.57
2022-09-02T08:40:45.528Z,15.78
2022-09-02T08:43:43.338Z,16.30
2022-09-02T08:46:12.471Z,16.27
2022-09-02T08:49:15.836Z,16.30
2022-09-02T08:51:51.514Z,16.60
2022-09-02T08:54:42.417Z,16.75
2022-09-02T08:57:09.355Z,16.36
2022-09-02T08:59:37.181Z,16.72
2022-09-02T09:02:47.348Z,16.95
2022-09-02T09:05:24.557Z,16.90
2022-09-02T09:07:57.390Z,17.13
2022-09-02T09:10:35.564Z,17.00
2022-09-02T09:13:28.427Z,17.02
2022-09-02T09:16:23.132Z,16.96
2022-09-02T09:19:11.757Z,17.22
2022-09-02T09:21:38.828Z,17.04
2022-09-02T09:24:30.319Z,17.52
2022-09-02T09:26:58.214Z,17.31
2022-09-02T09:29:24.794Z,17.29
2022-09-02T09:31:58.473Z,17.51
2022-09-02T09:34:45.152Z,17.41
2022-09-02T09:37:11.830Z,17.54
2022-09-02T09:39:38.417Z,17.37
2022-09-02T09:42:14.397Z,17.66
2022-09-02T09:44:45.539Z,17.80
2022-09-02T09:47:19.595Z,17.93
2022-09-02T09:50:08.975Z,17.86
2022-09-02T09:52:35.991Z,18.24
2022-09-02T09:55:24.427Z,18.79
2022-09-02T09:57:51.811Z,18.30
2022-09-02T10:00:31.585Z,18.43
2022-09-02T10:03:05.364Z,18.65
2022-09-02T10:05:38.092Z,18.01
2022-09-02T10:08:26.863Z,18.53
2022-09-02T10:11:02.580Z,18.08
2022-09-02T10:13:32.085Z,18.14
2022-09-02T10:16:28.236Z,18.58
2022-09-02T10:18:58.205Z,18.13
2022-09-02T10:21:49.665Z,18.54
2022-09-02T10:24:53.753Z,18.78
2022-09-02T10:27:40.845Z,18.37
2022-09-02T10:30:16.493Z,18.83
2022-09-02T10:33:21.011Z,18.63
2022-09-02T10:36:20.815Z,18.64
2022-09-02T10:38:50.162Z,19.01
2022-09-02T10:41:40.308Z,19.22
2022-09-02T10:44:33.018Z,18.76
2022-09-02T10:47:03.365Z,18.94
2022-09-02T10:49:48.132Z,18.93
2022-09-02T10:52:33.706Z,19.08
2022-09-02T10:55:14.137Z,18.86
2022-09-02T10:58:04.026Z,19.06
2022-09-02T11:00:33.928Z,18.82
2022-09-02T11:03:24.052Z,18.19
2022-09-02T11:05:54.536Z,17.97
2022-09-02T11:08:57.479Z,18.11
2022-09-02T11:12:15.499Z,18.68
2022-09-02T11:14:56.635Z,19.15
2022-09-02T11:17:43.787Z,18.99
2022-09-02T11:20:29.174Z,18.98
2022-09-02T11:23:06.710Z,18.97
2022-09-02T11:25:55.277Z,18.79
2022-09-02T11:28:52.690Z,18.74
2022-09-02T11:31:27.431Z,18.56
2022-09-02T11:36:33.492Z,18.73
2022-09-02T11:39:03.633Z,19.36
2022-09-02T11:42:02.438Z,19.51
2022-09-02T11:44:52.877Z,18.97
2022-09-02T11:47:25.689Z,18.74
2022-09-02T11:50:30.770Z,18.74
2022-09-02T11:55:46.368Z,18.83
2022-09-02T11:58:32.127Z,18.81
2022-09-02T12:01:25.194Z,19.08
2022-09-02T12:04:40.066Z,18.94
2022-09-02T12:07:07.316Z,19.04
2022-09-02T12:12:37.651Z,18.55
2022-09-02T12:15:04.398Z,18.65
2022-09-02T12:17:49.238Z,18.88
2022-09-02T12:20:36.166Z,19.24
2022-09-02T12:23:03.544Z,19.22
2022-09-02T12:25:30.034Z,19.96
2022-09-02T12:28:30.606Z,20.42
2022-09-02T12:30:57.361Z,20.80
2022-09-02T12:33:39.094Z,20.88
2022-09-02T12:36:08.328Z,20.65
2022-09-02T12:38:41.871Z,19.93
2022-09-02T12:41:21.159Z,20.16
2022-09-02T12:44:25.866Z,20.41
2022-09-02T12:47:00.519Z,20.04
2022-09-02T12:49:48.857Z,19.79
2022-09-02T12:52:34.336Z,19.73
2022-09-02T12:55:10.011Z,19.88
2022-09-02T12:57:39.947Z,19.80
2022-09-02T13:00:07.158Z,19.21
2022-09-02T13:02:51.527Z,19.49
2022-09-02T13:05:30.983Z,20.00
2022-09-02T13:08:19.512Z,19.72
2022-09-02T13:11:08.021Z,19.63
2022-09-02T13:13:49.224Z,19.02
2022-09-02T13:16:43.807Z,18.40
2022-09-02T13:19:35.522Z,19.47
2022-09-02T13:22:14.232Z,19.54
2022-09-02T13:24:47.057Z,19.82
2022-09-02T13:27:31.890Z,20.15
2022-09-02T13:30:04.670Z,19.82
2022-09-02T13:32:33.001Z,18.93
2022-09-02T13:35:05.238Z,19.39
2022-09-02T13:37:41.312Z,19.43
2022-09-02T13:40:24.159Z,19.06
2022-09-02T13:43:02.610Z,19.06
2022-09-02T13:45:33.106Z,19.03
2022-09-02T13:48:02.840Z,19.18
2022-09-02T13:50:31.821Z,18.80
2022-09-02T13:55:53.818Z,19.20
2022-09-02T13:58:45.354Z,18.94
2022-09-02T14:01:30.736Z,18.60
2022-09-02T14:04:00.552Z,19.12
2022-09-02T14:06:34.233Z,19.67
2022-09-02T14:09:04.222Z,19.58
2022-09-02T14:11:42.350Z,19.96
2022-09-02T14:14:14.607Z,19.78
2022-09-02T14:16:41.186Z,19.39
2022-09-02T14:19:23.464Z,19.03
2022-09-02T14:21:56.217Z,18.92
2022-09-02T14:24:29.575Z,18.90
2022-09-02T14:26:58.257Z,19.21
2022-09-02T14:29:26.510Z,19.17
2022-09-02T14:32:21.226Z,18.88
2022-09-02T14:34:48.896Z,18.83
2022-09-02T14:37:22.919Z,19.03
2022-09-02T14:40:01.805Z,19.17
2022-09-02T14:42:29.579Z,19.34
2022-09-02T14:44:56.921Z,19.78
2022-09-02T14:47:23.956Z,19.17
2022-09-02T14:49:55.390Z,19.37
2022-09-02T14:52:28.471Z,19.52
2022-09-02T14:54:57.484Z,19.58
2022-09-02T14:57:35.386Z,19.40
2022-09-02T15:00:06.777Z,19.20
2022-09-02T15:02:35.040Z,19.02
2022-09-02T15:05:06.738Z,19.36
2022-09-02T15:07:34.531Z,18.91
2022-09-02T15:10:01.153Z,18.88
2022-09-02T15:12:30.423Z,19.06
2022-09-02T15:14:57.887Z,19.15
2022-09-02T15:17:25.246Z,19.48
2022-09-02T15:19:51.986Z,19.59
2022-09-02T15:22:19.704Z,19.61
2022-09-02T15:24:46.378Z,19.89
2022-09-02T15:27:13.729Z,20.12
2022-09-02T15:29:40.542Z,19.35
2022-09-02T15:32:07.491Z,19.34
2022-09-02T15:34:34.268Z,19.38
2022-09-02T15:37:02.616Z,19.59
2022-09-02T15:39:29.521Z,19.34
2022-09-02T15:41:56.441Z,18.95
2022-09-02T15:44:24.134Z,19.30
2022-09-02T15:46:50.742Z,19.36
2022-09-02T15:49:24.626Z,19.31
2022-09-02T15:51:54.914Z,19.06
2022-09-02T15:54:31.402Z,18.78
2022-09-02T15:56:59.826Z,18.66
2022-09-02T15:59:29.466Z,18.79
2022-09-02T16:02:03.177Z,18.66
2022-09-02T16:04:30.475Z,18.51
2022-09-02T16:07:00.678Z,18.13
2022-09-02T16:09:32.553Z,18.06
2022-09-02T16:12:00.951Z,17.86
2022-09-02T16:14:31.168Z,17.67
2022-09-02T16:17:01.530Z,18.20
2022-09-02T16:19:35.416Z,18.01
2022-09-02T16:22:02.420Z,18.21
2022-09-02T16:24:29.050Z,18.37
2022-09-02T16:26:57.185Z,18.41
2022-09-02T16:29:24.672Z,18.23
2022-09-02T16:32:02.157Z,17.52
2022-09-02T16:34:37.966Z,17.30
2022-09-02T16:37:04.527Z,17.11
2022-09-02T16:39:31.290Z,17.09
2022-09-02T16:41:57.950Z,17.27
2022-09-02T16:44:25.589Z,17.44
2022-09-02T16:46:55.949Z,17.39
2022-09-02T16:49:24.997Z,17.07
2022-09-02T16:51:58.152Z,16.87
2022-09-02T16:54:31.637Z,17.22
2022-09-02T16:57:01.677Z,17.20
2022-09-02T16:59:28.717Z,17.16
2022-09-02T17:01:56.067Z,16.78
2022-09-02T17:04:23.542Z,16.59
2022-09-02T17:06:50.509Z,16.37
2022-09-02T17:09:20.152Z,16.82
2022-09-02T17:11:48.541Z,16.53
2022-09-02T17:14:17.710Z,15.81
2022-09-02T17:16:50.923Z,16.61
2022-09-02T17:19:20.086Z,16.18
2022-09-02T17:21:52.153Z,16.49
2022-09-02T17:24:22.767Z,16.16
2022-09-02T17:26:51.376Z,16.06
2022-09-02T17:29:47.557Z,16.18
2022-09-02T17:32:08.154Z,16.08
2022-09-02T17:34:36.319Z,16.03
2022-09-02T17:37:04.263Z,15.77
2022-09-02T17:39:32.539Z,15.82
2022-09-02T17:42:06.815Z,16.08
2022-09-02T17:44:38.796Z,15.49
2022-09-02T17:47:15.448Z,15.89
2022-09-02T17:49:42.701Z,15.81
2022-09-02T17:52:09.297Z,15.58
2022-09-02T17:54:37.555Z,15.92
2022-09-02T17:57:32.990Z,15.96
2022-09-02T18:00:29.209Z,15.61
2022-09-02T18:03:04.355Z,15.70
2022-09-02T18:05:41.533Z,15.66
2022-09-02T18:08:33.671Z,14.90
2022-09-02T18:11:02.354Z,14.84
2022-09-02T18:13:48.642Z,14.98
2022-09-02T18:16:49.450Z,15.10
2022-09-02T18:19:42.504Z,15.09
2022-09-02T18:22:31.145Z,15.07
2022-09-02T18:25:14.407Z,14.90
2022-09-02T18:27:55.342Z,14.51
2022-09-02T18:30:40.582Z,14.97
2022-09-02T18:33:16.633Z,14.89
2022-09-02T18:35:48.510Z,14.93
2022-09-02T18:38:40.137Z,15.01
2022-09-02T18:41:31.915Z,14.13
2022-09-02T18:44:13.980Z,15.00
2022-09-02T18:46:54.117Z,14.86
2022-09-02T18:49:23.906Z,15.02
2022-09-02T18:51:55.884Z,14.67
2022-09-02T18:54:26.859Z,14.73
2022-09-02T18:56:58.575Z,14.76
2022-09-02T18:59:38.221Z,14.82
2022-09-02T19:02:31.089Z,14.59
2022-09-02T19:04:59.235Z,14.22
2022-09-02T19:07:28.595Z,14.58
2022-09-02T19:09:55.715Z,14.26
2022-09-02T19:12:22.559Z,14.18
2022-09-02T19:14:49.176Z,13.98
2022-09-02T19:17:15.709Z,14.37
2022-09-02T19:19:42.385Z,14.20
2022-09-02T19:22:10.924Z,14.19
2022-09-02T19:24:46.301Z,14.50
2022-09-02T19:27:17.215Z,14.95
2022-09-02T19:29:47.710Z,14.64
2022-09-02T19:32:14.920Z,14.65
2022-09-02T19:34:43.988Z,14.67
2022-09-02T19:37:13.327Z,14.62
2022-09-02T19:39:40.094Z,14.60
2022-09-02T19:42:06.846Z,14.06
2022-09-02T19:44:33.470Z,14.13
2022-09-02T19:49:47.132Z,14.11
2022-09-02T19:52:13.662Z,14.05
2022-09-02T19:54:41.574Z,13.97
2022-09-02T19:57:08.187Z,14.42
2022-09-02T19:59:34.897Z,13.96
2022-09-02T20:02:01.492Z,14.21
2022-09-02T20:04:30.032Z,14.14
2022-09-02T20:06:57.147Z,14.10
2022-09-02T20:09:23.843Z,14.22
2022-09-02T20:11:50.458Z,14.13
2022-09-02T20:14:17.199Z,13.74
2022-09-02T20:16:43.846Z,13.90
2022-09-02T20:19:13.695Z,13.45
2022-09-02T20:21:45.603Z,13.91
2022-09-02T20:24:20.598Z,13.53
2022-09-02T20:27:05.563Z,13.77
2022-09-02T20:29:38.476Z,13.57
2022-09-02T20:32:42.316Z,13.87
2022-09-02T20:35:37.422Z,13.65
2022-09-02T20:38:17.255Z,13.35
2022-09-02T20:41:11.643Z,13.59
2022-09-02T20:43:41.438Z,14.00
2022-09-02T20:46:29.526Z,13.70
2022-09-02T20:49:01.945Z,13.48
2022-09-02T20:52:08.205Z,13.51
2022-09-02T20:54:50.995Z,13.90
2022-09-02T20:57:40.910Z,13.87
2022-09-02T21:00:10.711Z,13.58
2022-09-02T21:02:59.293Z,13.83
2022-09-02T21:05:31.251Z,13.71
2022-09-02T21:08:08.458Z,13.72
2022-09-02T21:10:42.650Z,13.21
2022-09-02T21:13:19.198Z,13.58
2022-09-02T21:15:58.283Z,13.18
2022-09-02T21:18:40.348Z,12.96
2022-09-02T21:21:21.768Z,13.26
2022-09-02T21:24:15.769Z,13.25
2022-09-02T21:26:56.603Z,13.23
2022-09-02T21:29:39.933Z,12.79
2022-09-02T21:32:15.429Z,12.71
2022-09-02T21:34:54.111Z,12.71
2022-09-02T21:37:23.120Z,12.66
2022-09-02T21:39:59.328Z,12.82
2022-09-02T21:42:39.664Z,12.78
2022-09-02T21:45:36.245Z,13.20
2022-09-02T21:48:09.022Z,13.64
2022-09-02T21:50:50.157Z,13.19
2022-09-02T21:53:30.363Z,13.16
2022-09-02T21:56:00.026Z,13.17
2022-09-02T21:58:45.637Z,12.89
2022-09-02T22:01:43.991Z,12.48
2022-09-02T22:04:24.914Z,12.80
2022-09-02T22:07:00.450Z,12.81
2022-09-02T22:09:30.032Z,13.24
2022-09-02T22:12:11.299Z,12.47
2022-09-02T22:14:45.511Z,12.76
2022-09-02T22:17:34.122Z,12.66
2022-09-02T22:20:02.524Z,13.02
2022-09-02T22:22:34.632Z,13.14
2022-09-02T22:25:01.402Z,13.00
2022-09-02T22:27:33.673Z,13.18
2022-09-02T22:30:15.753Z,12.73
2022-09-02T22:32:52.678Z,12.92
2022-09-02T22:35:22.488Z,13.16
2022-09-02T22:37:57.555Z,12.78
2022-09-02T22:40:27.861Z,12.80
2022-09-02T22:43:00.922Z,12.85
2022-09-02T22:45:35.487Z,12.56
2022-09-02T22:48:21.495Z,12.55
2022-09-02T22:50:53.591Z,12.89
2022-09-02T22:53:22.334Z,12.31
2022-09-02T22:55:51.885Z,12.72
2022-09-02T22:58:21.721Z,12.80
2022-09-02T23:01:02.424Z,12.45
2022-09-02T23:04:05.265Z,12.74
2022-09-02T23:06:32.931Z,12.59
2022-09-02T23:09:00.602Z,12.08
2022-09-02T23:11:57.855Z,12.52
2022-09-02T23:14:32.939Z,12.26
2022-09-02T23:17:30.203Z,12.30
2022-09-02T23:20:06.955Z,12.19
2022-09-02T23:22:57.731Z,11.97
2022-09-02T23:25:44.628Z,12.02
2022-09-02T23:28:15.724Z,11.93
2022-09-02T23:30:49.066Z,11.74
2022-09-02T23:33:29.221Z,11.36
2022-09-02T23:36:48.360Z,11.86
2022-09-02T23:39:42.495Z,11.69
2022-09-02T23:42:10.590Z,11.33
2022-09-02T23:44:37.222Z,11.87
2022-09-02T23:47:40.541Z,12.02
2022-09-02T23:50:58.192Z,11.89
2022-09-02T23:53:33.802Z,11.58
2022-09-02T23:56:18.389Z,11.79
2022-09-02T23:59:09.974Z,11.69
